Pays
Station

 

Conditions  météo  pour  Monbaca Benguela  -  Angola    Angola

  
27 °C
    
 
 

METAR pour Monbaca Benguela :

FNBG 231100Z 31004KT 9999 FEW020 BKN100 27/22 Q1013

 

Voici le bulletin pour Monbaca Benguela - Angola.
 
Le bulletin a été fait il y a une heure et 28 minutes, à 11:00 UTC .
Le vent soufflait à la vitesse de 2.1 mètres par seconde de Nord-ouest (310°).
 
La température était de 27 °C, avec un point de rosée à 22 °C.
La température ressentie était de 29 °C.
 
La pression atmosphérique était de 1013 hPa.
L'humidité relative était de 74.2%.
 
Il y avait 1 à 2/8ème de nébulosité à une hauteur de 610 mètres et 5 à 7/8ème de nébulosité à une hauteur de 3048 mètres.
 
La visibilité globale était de supérieure à 10 kilomètres.
 

 
 
 

Pays :   A   B   C   D   E   F   G   H   I   J   K   L   M   N   O   P   Q   R   S   T   U   V   W   Y   Z

 

Partenaires :  Info Météo avec Met'info
Météo Marine avec MeteoMarine.net
Infos Site  |  Infos Légales  |  Crédits  |  Confidentialité
Contactez-nous  |  Ajouter aux favoris
© 2013-2018 METAR - Tous droits réservés